createdAt,value
2017-05-26T00:00:10.245Z,931.87
2017-05-26T00:00:23.805Z,931.87
2017-05-26T00:00:37.296Z,931.86
2017-05-26T00:00:50.873Z,931.86
2017-05-26T00:01:04.280Z,931.89
2017-05-26T00:01:17.637Z,931.85
2017-05-26T00:01:30.576Z,931.87
2017-05-26T00:01:43.626Z,931.89
2017-05-26T00:01:57.105Z,931.89
2017-05-26T00:02:10.686Z,931.87
2017-05-26T00:02:23.671Z,931.89
2017-05-26T00:02:36.521Z,931.86
2017-05-26T00:02:49.895Z,931.85
2017-05-26T00:03:03.362Z,931.89
2017-05-26T00:03:16.891Z,931.89
2017-05-26T00:03:29.854Z,931.85
2017-05-26T00:03:42.835Z,931.88
2017-05-26T00:03:55.793Z,931.9
2017-05-26T00:04:08.300Z,931.85
2017-05-26T00:04:21.281Z,931.89
2017-05-26T00:04:34.167Z,931.87
2017-05-26T00:04:47.044Z,931.87
2017-05-26T00:05:00.010Z,931.87
2017-05-26T00:05:11.933Z,931.85
2017-05-26T00:05:25.570Z,931.85
2017-05-26T00:05:38.933Z,931.86
2017-05-26T00:05:52.453Z,931.83
2017-05-26T00:06:05.413Z,931.87
2017-05-26T00:06:17.807Z,931.84
2017-05-26T00:06:31.484Z,931.83
2017-05-26T00:06:44.927Z,931.84
2017-05-26T00:06:58.498Z,931.82
2017-05-26T00:07:11.405Z,931.85
2017-05-26T00:07:24.420Z,931.84
2017-05-26T00:07:37.868Z,931.85
2017-05-26T00:07:51.498Z,931.86
2017-05-26T00:08:05.009Z,931.85
2017-05-26T00:08:18.103Z,931.83
2017-05-26T00:08:30.894Z,931.83
2017-05-26T00:08:44.381Z,931.8
2017-05-26T00:08:58.531Z,931.85
2017-05-26T00:09:15.246Z,931.87
2017-05-26T00:09:28.188Z,931.83
2017-05-26T00:09:41.658Z,931.84
2017-05-26T00:09:56.291Z,931.81
2017-05-26T00:10:09.297Z,931.88
2017-05-26T00:10:22.823Z,931.89
2017-05-26T00:10:36.277Z,931.84
2017-05-26T00:10:49.196Z,931.86
2017-05-26T00:11:02.676Z,931.86
2017-05-26T00:11:15.770Z,931.84
2017-05-26T00:11:31.286Z,931.85
2017-05-26T00:11:43.695Z,931.86
2017-05-26T00:11:57.148Z,931.85
2017-05-26T00:12:09.639Z,931.86
2017-05-26T00:12:22.629Z,931.85
2017-05-26T00:12:36.066Z,931.89
2017-05-26T00:12:50.033Z,931.89
2017-05-26T00:13:03.615Z,931.85
2017-05-26T00:13:17.081Z,931.86
2017-05-26T00:13:29.614Z,931.83
2017-05-26T00:13:45.225Z,931.85
2017-05-26T00:14:00.806Z,931.82
2017-05-26T00:14:13.679Z,931.88
2017-05-26T00:14:26.629Z,931.85
2017-05-26T00:14:39.048Z,931.84
2017-05-26T00:14:53.262Z,931.84
2017-05-26T00:15:06.724Z,931.84
2017-05-26T00:15:20.464Z,931.85
2017-05-26T00:15:36.419Z,931.87
2017-05-26T00:16:01.649Z,931.86
2017-05-26T00:16:17.979Z,931.87
2017-05-26T00:16:30.940Z,931.79
2017-05-26T00:16:43.370Z,931.84
2017-05-26T00:16:57.159Z,931.82
2017-05-26T00:17:09.015Z,931.86
2017-05-26T00:17:22.000Z,931.88
2017-05-26T00:17:34.914Z,931.81
2017-05-26T00:17:47.831Z,931.87
2017-05-26T00:18:01.275Z,931.87
2017-05-26T00:18:14.522Z,931.87
2017-05-26T00:18:26.986Z,931.82
2017-05-26T00:18:40.555Z,931.87
2017-05-26T00:18:55.629Z,931.87
2017-05-26T00:19:09.079Z,931.86
2017-05-26T00:19:22.528Z,931.86
2017-05-26T00:19:36.747Z,931.87
2017-05-26T00:19:50.233Z,931.88
2017-05-26T00:20:03.131Z,931.88
2017-05-26T00:20:16.676Z,931.85
2017-05-26T00:20:31.808Z,931.86
2017-05-26T00:20:44.725Z,931.89
2017-05-26T00:20:57.578Z,931.85
2017-05-26T00:21:11.108Z,931.87
2017-05-26T00:21:23.482Z,931.87
2017-05-26T00:21:37.536Z,931.87
2017-05-26T00:21:50.425Z,931.86
2017-05-26T00:22:03.508Z,931.88
2017-05-26T00:22:16.374Z,931.83
2017-05-26T00:22:28.818Z,931.85
2017-05-26T00:22:41.913Z,931.85
2017-05-26T00:23:11.556Z,931.81
2017-05-26T00:23:24.818Z,931.84
2017-05-26T00:23:38.036Z,931.85
2017-05-26T00:23:51.634Z,931.81
2017-05-26T00:24:05.112Z,931.85
2017-05-26T00:24:18.466Z,931.82
2017-05-26T00:24:34.500Z,931.85
2017-05-26T00:24:47.979Z,931.87
2017-05-26T00:25:00.839Z,931.82
2017-05-26T00:25:14.206Z,931.83
2017-05-26T00:25:27.727Z,931.83
2017-05-26T00:25:40.689Z,931.86
2017-05-26T00:25:54.142Z,931.86
2017-05-26T00:26:37.169Z,931.82
2017-05-26T00:27:34.165Z,931.83
2017-05-26T00:27:47.884Z,931.84
2017-05-26T00:28:01.344Z,931.87
2017-05-26T00:28:15.166Z,931.83
2017-05-26T00:29:01.116Z,931.83
2017-05-26T00:29:14.144Z,931.82
2017-05-26T00:29:30.834Z,931.84
2017-05-26T00:29:57.339Z,931.85
2017-05-26T00:30:26.274Z,931.84
2017-05-26T00:30:45.103Z,931.84
2017-05-26T00:30:58.874Z,931.82
2017-05-26T00:31:18.198Z,931.84
2017-05-26T00:31:31.946Z,931.84
2017-05-26T00:31:44.351Z,931.87
2017-05-26T00:31:57.828Z,931.85
2017-05-26T00:32:12.240Z,931.85
2017-05-26T00:32:25.973Z,931.84
2017-05-26T00:32:38.803Z,931.88
2017-05-26T00:32:52.452Z,931.86
2017-05-26T00:33:06.123Z,931.88
2017-05-26T00:33:19.897Z,931.89
2017-05-26T00:33:32.870Z,931.86
2017-05-26T00:33:46.349Z,931.88
2017-05-26T00:33:59.277Z,931.86
2017-05-26T00:34:35.246Z,931.86
2017-05-26T00:34:53.818Z,931.88
2017-05-26T00:35:10.467Z,931.89
2017-05-26T00:35:36.912Z,931.88
2017-05-26T00:35:51.239Z,931.92
2017-05-26T00:36:04.580Z,931.87
2017-05-26T00:36:18.345Z,931.9
2017-05-26T00:36:34.408Z,931.9
2017-05-26T00:36:48.849Z,931.9
2017-05-26T00:37:33.038Z,931.87
2017-05-26T00:37:58.108Z,931.91
2017-05-26T00:39:25.968Z,931.9
2017-05-26T00:40:12.970Z,931.93
2017-05-26T00:40:32.748Z,931.93
2017-05-26T00:40:57.639Z,931.92
2017-05-26T00:41:13.403Z,931.92
2017-05-26T00:41:46.630Z,931.9
2017-05-26T00:42:36.754Z,931.9
2017-05-26T00:43:06.421Z,931.92
2017-05-26T00:43:23.214Z,931.92
2017-05-26T00:44:14.372Z,931.91
2017-05-26T00:44:40.064Z,931.92
2017-05-26T00:45:59.049Z,931.9
2017-05-26T00:46:50.153Z,931.9
2017-05-26T00:47:04.513Z,931.93
2017-05-26T00:47:29.616Z,931.95
2017-05-26T00:47:54.166Z,931.89
2017-05-26T00:48:32.825Z,931.89
2017-05-26T00:48:46.343Z,931.97
2017-05-26T00:49:31.097Z,931.92
2017-05-26T00:49:44.067Z,931.96
2017-05-26T00:50:21.429Z,931.92
2017-05-26T00:50:57.537Z,931.95
2017-05-26T00:51:10.924Z,931.89
2017-05-26T00:51:23.856Z,931.92
2017-05-26T00:52:14.190Z,931.92
2017-05-26T00:53:36.170Z,931.9
2017-05-26T00:54:02.826Z,931.9
2017-05-26T00:54:27.590Z,931.94
2017-05-26T00:55:14.151Z,931.9
2017-05-26T00:56:18.338Z,931.85
2017-05-26T00:57:09.957Z,931.91
2017-05-26T00:57:58.089Z,931.86
2017-05-26T00:58:12.681Z,931.89
2017-05-26T00:58:27.577Z,931.87
2017-05-26T00:58:48.269Z,931.87
2017-05-26T00:59:02.538Z,931.88
2017-05-26T00:59:48.873Z,931.87
2017-05-26T01:00:02.601Z,931.88
2017-05-26T01:00:15.594Z,931.89
2017-05-26T01:00:40.253Z,931.86
2017-05-26T01:01:25.152Z,931.85
2017-05-26T01:02:48.484Z,931.87
2017-05-26T01:03:47.698Z,931.85
2017-05-26T01:04:44.969Z,931.85
2017-05-26T01:06:06.453Z,931.87
2017-05-26T01:06:19.816Z,931.86
2017-05-26T01:07:11.411Z,931.86
2017-05-26T01:12:15.343Z,931.82
2017-05-26T01:13:05.893Z,931.85
2017-05-26T01:13:19.385Z,931.87
2017-05-26T01:14:42.325Z,931.81
2017-05-26T01:15:30.959Z,931.86
2017-05-26T01:15:44.872Z,931.83
2017-05-26T01:17:11.315Z,931.79
2017-05-26T01:19:08.692Z,931.77
2017-05-26T01:35:54.109Z,931.72
2017-05-26T01:37:26.987Z,931.68
2017-05-26T01:38:15.612Z,931.69
2017-05-26T01:38:29.019Z,931.76
2017-05-26T01:42:20.067Z,931.69
2017-05-26T01:43:35.194Z,931.67
2017-05-26T01:44:19.700Z,931.68
2017-05-26T01:44:34.993Z,931.65
2017-05-26T01:45:12.524Z,931.64
2017-05-26T01:45:32.438Z,931.66
2017-05-26T01:46:25.234Z,931.63
2017-05-26T01:47:17.089Z,931.6
2017-05-26T01:48:06.395Z,931.61
2017-05-26T01:48:22.853Z,931.61
2017-05-26T01:50:02.436Z,931.57
2017-05-26T01:51:06.757Z,931.55
2017-05-26T01:51:44.801Z,931.55
2017-05-26T01:52:03.524Z,931.56
2017-05-26T01:53:27.522Z,931.51
2017-05-26T01:53:41.648Z,931.54
2017-05-26T01:54:27.647Z,931.51
2017-05-26T01:55:26.589Z,931.54
2017-05-26T01:56:44.496Z,931.5
2017-05-26T01:57:29.066Z,931.47
2017-05-26T01:59:10.185Z,931.49
2017-05-26T01:59:23.142Z,931.5
2017-05-26T01:59:36.561Z,931.51
2017-05-26T02:00:26.638Z,931.49
2017-05-26T02:06:17.036Z,931.45
2017-05-26T02:09:56.145Z,931.43
2017-05-26T02:10:08.540Z,931.44
2017-05-26T02:11:24.671Z,931.45
2017-05-26T02:12:45.116Z,931.42
2017-05-26T02:14:31.934Z,931.39
2017-05-26T02:15:16.522Z,931.41
2017-05-26T02:16:25.334Z,931.38
2017-05-26T02:17:13.176Z,931.36
2017-05-26T02:18:59.946Z,931.34
2017-05-26T02:20:15.625Z,931.31
2017-05-26T02:21:18.359Z,931.33
2017-05-26T02:23:03.764Z,931.29
2017-05-26T02:25:37.460Z,931.29
2017-05-26T02:26:27.853Z,931.32
2017-05-26T02:27:46.868Z,931.31
2017-05-26T02:29:02.789Z,931.34
2017-05-26T02:37:30.807Z,931.31
2017-05-26T02:38:27.808Z,931.27
2017-05-26T02:39:42.928Z,931.28
2017-05-26T02:40:15.503Z,931.26
2017-05-26T02:41:29.871Z,931.25
2017-05-26T02:41:44.055Z,931.23
2017-05-26T02:42:35.125Z,931.21
2017-05-26T02:43:19.642Z,931.24
2017-05-26T02:44:04.168Z,931.21
2017-05-26T02:44:19.779Z,931.2
2017-05-26T02:44:33.266Z,931.22
2017-05-26T02:45:17.769Z,931.21
2017-05-26T02:46:35.609Z,931.22
2017-05-26T02:47:27.212Z,931.24
2017-05-26T02:50:24.864Z,931.2
2017-05-26T02:50:58.270Z,931.22
2017-05-26T02:51:39.622Z,931.21
2017-05-26T02:51:53.330Z,931.25
2017-05-26T02:52:55.739Z,931.21
2017-05-26T02:53:14.149Z,931.22
2017-05-26T02:54:03.545Z,931.2
2017-05-26T02:54:53.207Z,931.22
2017-05-26T02:55:29.228Z,931.2
2017-05-26T02:56:18.575Z,931.21
2017-05-26T02:57:05.166Z,931.2
2017-05-26T02:57:51.097Z,931.23
2017-05-26T02:58:47.986Z,931.2
2017-05-26T03:00:05.640Z,931.19
2017-05-26T03:00:50.208Z,931.21
2017-05-26T03:01:04.569Z,931.23
2017-05-26T03:02:13.022Z,931.21
2017-05-26T03:02:26.663Z,931.17
2017-05-26T03:02:43.837Z,931.18
2017-05-26T03:02:58.083Z,931.15
2017-05-26T03:03:48.968Z,931.18
2017-05-26T03:04:23.673Z,931.22
2017-05-26T03:05:21.575Z,931.2
2017-05-26T03:05:35.347Z,931.24
2017-05-26T03:05:48.287Z,931.21
2017-05-26T03:06:04.440Z,931.21
2017-05-26T03:06:17.877Z,931.18
2017-05-26T03:06:31.629Z,931.24
2017-05-26T03:06:45.270Z,931.2
2017-05-26T03:07:02.601Z,931.2
2017-05-26T03:07:15.554Z,931.24
2017-05-26T03:07:29.018Z,931.23
2017-05-26T03:07:42.406Z,931.22
2017-05-26T03:07:55.229Z,931.22
2017-05-26T03:08:08.694Z,931.23
2017-05-26T03:08:21.666Z,931.24
2017-05-26T03:08:34.030Z,931.26
2017-05-26T03:08:49.077Z,931.27
2017-05-26T03:09:01.988Z,931.21
2017-05-26T03:09:18.743Z,931.22
2017-05-26T03:09:32.946Z,931.19
2017-05-26T03:09:47.879Z,931.24
2017-05-26T03:10:12.331Z,931.25
2017-05-26T03:10:25.777Z,931.25
2017-05-26T03:10:39.290Z,931.26
2017-05-26T03:10:52.234Z,931.26
2017-05-26T03:11:07.837Z,931.27
2017-05-26T03:11:30.314Z,931.27
2017-05-26T03:12:10.429Z,931.29
2017-05-26T03:12:32.565Z,931.3
2017-05-26T03:12:57.054Z,931.32
2017-05-26T03:13:22.144Z,931.28
2017-05-26T03:13:41.266Z,931.35
2017-05-26T03:13:56.187Z,931.32
2017-05-26T03:14:12.156Z,931.32
2017-05-26T03:14:36.900Z,931.36
2017-05-26T03:14:53.254Z,931.38
2017-05-26T03:15:08.724Z,931.33
2017-05-26T03:15:23.555Z,931.35
2017-05-26T03:15:43.159Z,931.37
2017-05-26T03:16:09.371Z,931.38
2017-05-26T03:16:44.036Z,931.39
2017-05-26T03:17:33.633Z,931.4
2017-05-26T03:18:48.146Z,931.39
2017-05-26T03:19:03.861Z,931.37
2017-05-26T03:19:51.169Z,931.36
2017-05-26T03:20:18.713Z,931.36
2017-05-26T03:20:34.216Z,931.36
2017-05-26T03:21:00.950Z,931.36
2017-05-26T03:21:16.722Z,931.34
2017-05-26T03:22:04.967Z,931.37
2017-05-26T03:22:17.828Z,931.37
2017-05-26T03:22:34.217Z,931.37
2017-05-26T03:22:52.822Z,931.35
2017-05-26T03:23:10.506Z,931.36
2017-05-26T03:23:23.582Z,931.4
2017-05-26T03:23:39.060Z,931.39
2017-05-26T03:23:52.568Z,931.36
2017-05-26T03:24:26.654Z,931.36
2017-05-26T03:25:04.474Z,931.38
2017-05-26T03:25:17.846Z,931.36
2017-05-26T03:25:57.830Z,931.37
2017-05-26T03:26:40.693Z,931.39
2017-05-26T03:27:31.335Z,931.37
2017-05-26T03:27:55.255Z,931.38
2017-05-26T03:28:21.450Z,931.39
2017-05-26T03:28:35.128Z,931.42
2017-05-26T03:28:48.795Z,931.4
2017-05-26T03:29:08.134Z,931.42
2017-05-26T03:29:31.732Z,931.42
2017-05-26T03:29:52.410Z,931.42
2017-05-26T03:30:05.557Z,931.43
2017-05-26T03:30:35.620Z,931.46
2017-05-26T03:30:52.189Z,931.43
2017-05-26T03:31:05.632Z,931.4
2017-05-26T03:31:28.585Z,931.41
2017-05-26T03:31:42.665Z,931.47
2017-05-26T03:31:56.064Z,931.43
2017-05-26T03:32:13.099Z,931.41
2017-05-26T03:32:32.217Z,931.44
2017-05-26T03:32:46.384Z,931.44
2017-05-26T03:33:00.460Z,931.45
2017-05-26T03:33:13.913Z,931.43
2017-05-26T03:33:30.958Z,931.45
2017-05-26T03:33:43.799Z,931.45
2017-05-26T03:34:01.655Z,931.44
2017-05-26T03:34:18.373Z,931.45
2017-05-26T03:34:42.364Z,931.43
2017-05-26T03:35:06.046Z,931.44
2017-05-26T03:35:19.620Z,931.5
2017-05-26T03:35:38.269Z,931.48
2017-05-26T03:35:51.979Z,931.5
2017-05-26T03:36:05.372Z,931.51
2017-05-26T03:36:18.519Z,931.5
2017-05-26T03:36:51.980Z,931.51
2017-05-26T03:37:05.517Z,931.52
2017-05-26T03:37:20.738Z,931.47
2017-05-26T03:37:37.499Z,931.52
2017-05-26T03:37:53.944Z,931.52
2017-05-26T03:38:08.733Z,931.52
2017-05-26T03:38:22.967Z,931.56
2017-05-26T03:38:55.487Z,931.53
2017-05-26T03:39:10.364Z,931.54
2017-05-26T03:39:41.822Z,931.55
2017-05-26T03:39:56.787Z,931.53
2017-05-26T03:40:35.954Z,931.57
2017-05-26T03:41:24.268Z,931.54
2017-05-26T03:41:38.235Z,931.57
2017-05-26T03:41:51.672Z,931.59
2017-05-26T03:42:10.760Z,931.55
2017-05-26T03:42:42.678Z,931.56
2017-05-26T03:43:12.845Z,931.53
2017-05-26T03:43:26.526Z,931.55
2017-05-26T03:43:43.254Z,931.54
2017-05-26T03:44:07.250Z,931.55
2017-05-26T03:44:20.691Z,931.54
2017-05-26T03:44:38.163Z,931.53
2017-05-26T03:44:52.858Z,931.53
2017-05-26T03:45:19.831Z,931.55
2017-05-26T03:45:33.259Z,931.52
2017-05-26T03:45:46.694Z,931.53
2017-05-26T03:46:02.215Z,931.53
2017-05-26T03:46:27.263Z,931.52
2017-05-26T03:46:40.713Z,931.51
2017-05-26T03:47:02.863Z,931.52
2017-05-26T03:47:30.849Z,931.53
2017-05-26T03:48:27.072Z,931.52
2017-05-26T03:48:40.634Z,931.52
2017-05-26T03:48:54.843Z,931.51
2017-05-26T03:49:10.881Z,931.51
2017-05-26T03:49:26.085Z,931.5
2017-05-26T03:49:39.859Z,931.48
2017-05-26T03:49:54.119Z,931.5
2017-05-26T03:50:08.812Z,931.5
2017-05-26T03:50:21.163Z,931.51
2017-05-26T03:50:34.709Z,931.49
2017-05-26T03:50:49.349Z,931.5
2017-05-26T03:51:03.792Z,931.53
2017-05-26T03:51:17.389Z,931.53
2017-05-26T03:51:32.778Z,931.5
2017-05-26T03:51:46.959Z,931.52
2017-05-26T03:52:00.091Z,931.48
2017-05-26T03:52:13.479Z,931.46
2017-05-26T03:52:28.234Z,931.51
2017-05-26T03:52:41.660Z,931.49
2017-05-26T03:52:55.123Z,931.49
2017-05-26T03:53:09.234Z,931.49
2017-05-26T03:53:21.636Z,931.49
2017-05-26T03:53:37.357Z,931.48
2017-05-26T03:53:52.700Z,931.48
2017-05-26T03:54:06.348Z,931.5
2017-05-26T03:54:20.036Z,931.49
2017-05-26T03:54:36.426Z,931.47
2017-05-26T03:54:50.213Z,931.47
2017-05-26T03:55:04.299Z,931.49
2017-05-26T03:55:17.812Z,931.47
2017-05-26T03:55:30.784Z,931.47
2017-05-26T03:55:44.252Z,931.47
2017-05-26T03:55:57.145Z,931.47
2017-05-26T03:56:10.048Z,931.5
2017-05-26T03:56:23.714Z,931.49
2017-05-26T03:56:37.321Z,931.46
2017-05-26T03:56:50.766Z,931.49
2017-05-26T03:57:04.142Z,931.49
2017-05-26T03:57:17.638Z,931.48
2017-05-26T03:57:30.541Z,931.47
2017-05-26T03:57:42.948Z,931.49
2017-05-26T03:57:55.939Z,931.5
2017-05-26T03:58:09.409Z,931.46
2017-05-26T03:58:21.525Z,931.49
2017-05-26T03:58:34.420Z,931.47
2017-05-26T03:58:49.117Z,931.44
2017-05-26T03:59:02.021Z,931.44
2017-05-26T03:59:15.512Z,931.47
2017-05-26T03:59:29.012Z,931.43
2017-05-26T03:59:41.972Z,931.49
2017-05-26T03:59:54.848Z,931.48
2017-05-26T04:00:08.297Z,931.47
2017-05-26T04:00:21.235Z,931.45
2017-05-26T04:00:34.761Z,931.47
2017-05-26T04:00:48.345Z,931.46
2017-05-26T04:01:01.716Z,931.45
2017-05-26T04:01:14.657Z,931.43
2017-05-26T04:01:27.519Z,931.46
2017-05-26T04:01:40.506Z,931.46
2017-05-26T04:01:53.924Z,931.44
2017-05-26T04:02:06.372Z,931.48
2017-05-26T04:02:22.739Z,931.44
2017-05-26T04:02:36.244Z,931.46
2017-05-26T04:02:49.329Z,931.44
2017-05-26T04:03:02.807Z,931.47
2017-05-26T04:03:15.747Z,931.45
2017-05-26T04:03:29.203Z,931.47
2017-05-26T04:03:42.652Z,931.47
2017-05-26T04:03:56.889Z,931.47
2017-05-26T04:04:10.282Z,931.47
2017-05-26T04:04:23.194Z,931.48
2017-05-26T04:04:35.862Z,931.47
2017-05-26T04:04:49.346Z,931.48
2017-05-26T04:05:02.383Z,931.48
2017-05-26T04:05:15.266Z,931.48
2017-05-26T04:05:30.182Z,931.51
2017-05-26T04:05:43.654Z,931.5
2017-05-26T04:05:56.582Z,931.51
2017-05-26T04:06:09.540Z,931.5
2017-05-26T04:06:23.723Z,931.51
2017-05-26T04:06:36.794Z,931.51
2017-05-26T04:06:50.272Z,931.5
2017-05-26T04:07:03.152Z,931.48
2017-05-26T04:07:14.971Z,931.5
2017-05-26T04:07:28.359Z,931.5
2017-05-26T04:07:41.795Z,931.5
2017-05-26T04:07:55.236Z,931.51
2017-05-26T04:08:08.193Z,931.5
2017-05-26T04:08:21.053Z,931.51
2017-05-26T04:08:33.895Z,931.5
2017-05-26T04:08:47.246Z,931.49
2017-05-26T04:09:00.733Z,931.49
2017-05-26T04:09:14.271Z,931.49
2017-05-26T04:09:27.655Z,931.49
2017-05-26T04:09:40.553Z,931.49
2017-05-26T04:09:53.971Z,931.46
2017-05-26T04:10:07.394Z,931.47
2017-05-26T04:10:20.801Z,931.47
2017-05-26T04:10:34.268Z,931.47
2017-05-26T04:10:47.693Z,931.49
2017-05-26T04:11:01.129Z,931.48
2017-05-26T04:11:14.587Z,931.45
2017-05-26T04:11:27.482Z,931.44
2017-05-26T04:11:40.935Z,931.43
2017-05-26T04:11:54.372Z,931.47
2017-05-26T04:12:07.279Z,931.42
2017-05-26T04:12:20.678Z,931.46
2017-05-26T04:12:34.142Z,931.44
2017-05-26T04:12:47.112Z,931.46
2017-05-26T04:13:00.534Z,931.45
2017-05-26T04:13:13.936Z,931.45
2017-05-26T04:13:27.356Z,931.44
2017-05-26T04:13:40.322Z,931.49
2017-05-26T04:13:53.683Z,931.44
2017-05-26T04:14:07.101Z,931.44
2017-05-26T04:14:20.576Z,931.43
2017-05-26T04:14:34.021Z,931.49
2017-05-26T04:14:46.947Z,931.46
2017-05-26T04:15:00.332Z,931.46
2017-05-26T04:15:13.231Z,931.45
2017-05-26T04:15:26.136Z,931.48
2017-05-26T04:15:39.033Z,931.46
2017-05-26T04:15:52.472Z,931.49
2017-05-26T04:16:05.909Z,931.45
2017-05-26T04:16:19.405Z,931.49
2017-05-26T04:16:32.846Z,931.45
2017-05-26T04:16:46.249Z,931.47
2017-05-26T04:16:59.169Z,931.45
2017-05-26T04:17:12.074Z,931.43
2017-05-26T04:17:24.886Z,931.45
2017-05-26T04:17:37.246Z,931.46
2017-05-26T04:17:50.181Z,931.43
2017-05-26T04:18:03.642Z,931.46
2017-05-26T04:18:17.101Z,931.45
2017-05-26T04:18:30.613Z,931.45
2017-05-26T04:18:42.962Z,931.43
2017-05-26T04:18:55.856Z,931.44
2017-05-26T04:19:09.275Z,931.45
2017-05-26T04:19:21.601Z,931.44
2017-05-26T04:19:34.974Z,931.45
2017-05-26T04:19:48.356Z,931.48
2017-05-26T04:20:01.781Z,931.44
2017-05-26T04:20:14.717Z,931.43
2017-05-26T04:20:27.642Z,931.45
2017-05-26T04:20:41.129Z,931.48
2017-05-26T04:20:53.944Z,931.44
2017-05-26T04:21:07.293Z,931.46
2017-05-26T04:21:19.610Z,931.46
2017-05-26T04:21:33.032Z,931.47
2017-05-26T04:21:46.419Z,931.45
2017-05-26T04:21:59.357Z,931.47
2017-05-26T04:22:12.265Z,931.47
2017-05-26T04:22:25.773Z,931.48
2017-05-26T04:22:39.141Z,931.43
2017-05-26T04:22:52.493Z,931.48
2017-05-26T04:23:05.908Z,931.46
2017-05-26T04:23:18.822Z,931.42
2017-05-26T04:23:32.245Z,931.44
2017-05-26T04:23:45.584Z,931.43
2017-05-26T04:23:58.520Z,931.4
2017-05-26T04:24:11.880Z,931.43
2017-05-26T04:24:25.594Z,931.46
2017-05-26T04:24:39.035Z,931.43
2017-05-26T04:24:52.024Z,931.46
2017-05-26T04:25:05.451Z,931.45
2017-05-26T04:25:18.377Z,931.43
2017-05-26T04:25:31.815Z,931.43
2017-05-26T04:25:45.242Z,931.47
2017-05-26T04:25:58.653Z,931.44
2017-05-26T04:26:12.063Z,931.44
2017-05-26T04:26:24.956Z,931.42
2017-05-26T04:26:38.459Z,931.44
2017-05-26T04:26:51.341Z,931.46
2017-05-26T04:27:04.257Z,931.44
2017-05-26T04:27:17.162Z,931.46
2017-05-26T04:27:30.588Z,931.41
2017-05-26T04:27:43.435Z,931.43
2017-05-26T04:27:56.317Z,931.41
2017-05-26T04:28:09.294Z,931.43
2017-05-26T04:28:22.701Z,931.42
2017-05-26T04:28:36.165Z,931.4
2017-05-26T04:28:49.680Z,931.39
2017-05-26T04:29:02.593Z,931.4
2017-05-26T04:29:15.418Z,931.39
2017-05-26T04:29:28.314Z,931.4
2017-05-26T04:29:41.179Z,931.4
2017-05-26T04:29:54.046Z,931.39
2017-05-26T04:30:06.419Z,931.38
2017-05-26T04:30:18.797Z,931.41
2017-05-26T04:30:32.167Z,931.38
2017-05-26T04:30:45.630Z,931.36
2017-05-26T04:30:59.081Z,931.36
2017-05-26T04:31:12.442Z,931.38
2017-05-26T04:31:24.790Z,931.37
2017-05-26T04:31:37.667Z,931.37
2017-05-26T04:31:51.076Z,931.37
2017-05-26T04:32:03.954Z,931.35
2017-05-26T04:32:17.411Z,931.35
2017-05-26T04:32:29.728Z,931.36
2017-05-26T04:32:43.149Z,931.36
2017-05-26T04:32:56.520Z,931.36
2017-05-26T04:33:08.981Z,931.34
2017-05-26T04:33:21.897Z,931.34
2017-05-26T04:33:35.283Z,931.37
2017-05-26T04:33:48.690Z,931.38
2017-05-26T04:34:02.096Z,931.33
2017-05-26T04:34:15.038Z,931.36
2017-05-26T04:34:27.916Z,931.35
2017-05-26T04:34:41.385Z,931.36
2017-05-26T04:34:54.821Z,931.33
2017-05-26T04:35:08.260Z,931.37
2017-05-26T04:35:21.668Z,931.33
2017-05-26T04:35:34.534Z,931.34
2017-05-26T04:35:47.973Z,931.34
2017-05-26T04:36:00.801Z,931.33
2017-05-26T04:36:13.127Z,931.35
2017-05-26T04:36:25.957Z,931.35
2017-05-26T04:36:39.371Z,931.34
2017-05-26T04:36:52.816Z,931.35
2017-05-26T04:37:06.247Z,931.31
2017-05-26T04:37:19.097Z,931.31
2017-05-26T04:37:31.994Z,931.32
2017-05-26T04:37:45.521Z,931.35
2017-05-26T04:37:57.983Z,931.34
2017-05-26T04:38:10.849Z,931.32
2017-05-26T04:38:24.283Z,931.37
2017-05-26T04:38:37.220Z,931.33
2017-05-26T04:38:50.142Z,931.35
2017-05-26T04:39:03.534Z,931.33
2017-05-26T04:39:16.980Z,931.3
2017-05-26T04:39:30.105Z,931.32
2017-05-26T04:39:43.520Z,931.33
2017-05-26T04:39:56.923Z,931.29
2017-05-26T04:40:08.752Z,931.31
2017-05-26T04:40:22.143Z,931.3
2017-05-26T04:40:35.073Z,931.29
2017-05-26T04:40:48.462Z,931.28
2017-05-26T04:41:01.319Z,931.3
2017-05-26T04:41:14.340Z,931.31
2017-05-26T04:41:27.857Z,931.29
2017-05-26T04:41:41.193Z,931.29
2017-05-26T04:41:54.635Z,931.27
2017-05-26T04:42:08.063Z,931.29
2017-05-26T04:42:21.486Z,931.3
2017-05-26T04:42:34.335Z,931.26
2017-05-26T04:42:47.691Z,931.29
2017-05-26T04:43:01.078Z,931.26
2017-05-26T04:43:13.985Z,931.28
2017-05-26T04:43:26.894Z,931.29
2017-05-26T04:43:39.823Z,931.25
2017-05-26T04:43:53.244Z,931.25
2017-05-26T04:44:06.646Z,931.27
2017-05-26T04:44:18.506Z,931.29
2017-05-26T04:44:31.918Z,931.26
2017-05-26T04:44:45.422Z,931.25
2017-05-26T04:44:58.868Z,931.26
2017-05-26T04:45:12.277Z,931.24
2017-05-26T04:45:24.698Z,931.25
2017-05-26T04:45:37.097Z,931.25
2017-05-26T04:45:50.487Z,931.24
2017-05-26T04:46:04.000Z,931.26
2017-05-26T04:46:17.438Z,931.19
2017-05-26T04:46:30.339Z,931.25
2017-05-26T04:46:43.256Z,931.21
2017-05-26T04:46:56.119Z,931.19
2017-05-26T04:47:08.482Z,931.22
2017-05-26T04:47:21.349Z,931.22
2017-05-26T04:47:34.182Z,931.24
2017-05-26T04:47:47.556Z,931.23
2017-05-26T04:48:00.971Z,931.23
2017-05-26T04:48:13.985Z,931.23
2017-05-26T04:48:27.382Z,931.21
2017-05-26T04:48:40.265Z,931.24
2017-05-26T04:48:53.663Z,931.24
2017-05-26T04:49:07.082Z,931.22
2017-05-26T04:49:20.454Z,931.21
2017-05-26T04:49:33.354Z,931.25
2017-05-26T04:49:46.281Z,931.22
2017-05-26T04:49:59.752Z,931.19
2017-05-26T04:50:13.144Z,931.22
2017-05-26T04:50:26.588Z,931.21
2017-05-26T04:50:38.954Z,931.22
2017-05-26T04:50:52.359Z,931.21
2017-05-26T04:51:05.286Z,931.18
2017-05-26T04:51:18.276Z,931.21
2017-05-26T04:51:31.712Z,931.2
2017-05-26T04:51:45.126Z,931.19
2017-05-26T04:51:58.595Z,931.2
2017-05-26T04:52:12.021Z,931.18
2017-05-26T04:52:25.526Z,931.21
2017-05-26T04:52:37.932Z,931.21
2017-05-26T04:52:51.368Z,931.21
2017-05-26T04:53:04.855Z,931.22
2017-05-26T04:53:17.253Z,931.21
2017-05-26T04:53:30.747Z,931.2
2017-05-26T04:53:44.223Z,931.24
2017-05-26T04:53:57.729Z,931.23
2017-05-26T04:54:10.624Z,931.22
2017-05-26T04:54:24.084Z,931.25
2017-05-26T04:54:37.238Z,931.21
2017-05-26T04:54:50.586Z,931.19
2017-05-26T04:55:04.031Z,931.21
2017-05-26T04:55:17.469Z,931.22
2017-05-26T04:55:30.361Z,931.2
2017-05-26T04:55:43.268Z,931.23
2017-05-26T04:55:56.133Z,931.22
2017-05-26T04:56:09.611Z,931.2
2017-05-26T04:56:22.563Z,931.23
2017-05-26T04:56:35.466Z,931.21
2017-05-26T04:56:48.889Z,931.22
2017-05-26T04:57:02.246Z,931.24
2017-05-26T04:57:15.114Z,931.24
2017-05-26T04:57:28.566Z,931.22
2017-05-26T04:57:41.969Z,931.25
2017-05-26T04:57:55.355Z,931.24
2017-05-26T04:58:08.824Z,931.23
2017-05-26T04:58:22.224Z,931.26
2017-05-26T04:58:35.632Z,931.23
2017-05-26T04:58:49.125Z,931.21
2017-05-26T04:59:02.537Z,931.23
2017-05-26T04:59:16.067Z,931.23
2017-05-26T04:59:28.488Z,931.26
2017-05-26T04:59:41.957Z,931.24
2017-05-26T04:59:55.316Z,931.25
2017-05-26T05:00:08.272Z,931.23
2017-05-26T05:00:21.671Z,931.21
2017-05-26T05:00:35.039Z,931.24
2017-05-26T05:00:48.010Z,931.25
2017-05-26T05:01:00.942Z,931.24
2017-05-26T05:01:14.337Z,931.24
2017-05-26T05:01:27.291Z,931.27
2017-05-26T05:01:39.174Z,931.24
2017-05-26T05:01:52.570Z,931.24
2017-05-26T05:02:06.016Z,931.25
2017-05-26T05:02:18.990Z,931.26
2017-05-26T05:02:31.399Z,931.24
2017-05-26T05:02:44.313Z,931.22
2017-05-26T05:02:57.243Z,931.22
2017-05-26T05:03:10.725Z,931.25
2017-05-26T05:03:24.166Z,931.22
2017-05-26T05:03:37.580Z,931.27